Terminal Aerodrome Forecast
Issued by NWS

Current Version | Previous Version | Graphics & Text | Print | Product List | Glossary On
Versions: 1 2 3 4 5 6 7 8 9 10 11 12 13 14 15 16 17 18 19 20 21
000
FTUS41 KPBZ 301700
TAFHLG
TAF
KHLG 301720Z 3018/3118 27015G30KT P6SM BKN050
     FM310000 26005KT P6SM BKN050
     FM311000 18006KT P6SM BKN035
     FM311400 22012G18KT P6SM -SHRA OVC025=

USA.gov is the U.S. government's official web portal to all federal, state and local government web resources and services.